createdAt,value
2019-05-21T00:00:01.822Z,12.67
2019-05-21T00:02:30.259Z,11.83
2019-05-21T00:04:58.695Z,12.33
2019-05-21T00:07:27.161Z,12.47
2019-05-21T00:09:55.667Z,12.57
2019-05-21T00:12:24.099Z,12.87
2019-05-21T00:14:52.595Z,12.90
2019-05-21T00:17:21.042Z,13.67
2019-05-21T00:19:49.470Z,14.33
2019-05-21T00:22:17.916Z,13.83
2019-05-21T00:24:46.419Z,14.53
2019-05-21T00:27:14.899Z,13.90
2019-05-21T00:30:19.521Z,13.87
2019-05-21T00:33:24.304Z,14.17
2019-05-21T00:36:30.993Z,13.43
2019-05-21T00:39:35.749Z,12.97
2019-05-21T00:42:03.775Z,12.93
2019-05-21T00:44:40.838Z,13.70
2019-05-21T00:47:11.037Z,14.87
2019-05-21T00:49:39.637Z,13.77
2019-05-21T00:52:09.452Z,13.87
2019-05-21T00:54:38.135Z,14.00
2019-05-21T00:57:06.556Z,15.10
2019-05-21T00:59:34.987Z,14.33
2019-05-21T01:02:03.449Z,13.90
2019-05-21T01:04:31.915Z,13.67
2019-05-21T01:07:00.347Z,13.97
2019-05-21T01:09:28.826Z,13.13
2019-05-21T01:11:57.266Z,13.30
2019-05-21T01:14:25.695Z,13.00
2019-05-21T01:16:54.231Z,12.87
2019-05-21T01:19:22.718Z,11.70
2019-05-21T01:21:51.158Z,12.37
2019-05-21T01:24:21.347Z,12.77
2019-05-21T01:26:49.942Z,12.37
2019-05-21T01:29:18.416Z,13.20
2019-05-21T01:31:46.845Z,11.90
2019-05-21T01:34:15.278Z,13.43
2019-05-21T01:36:43.700Z,14.40
2019-05-21T01:39:12.144Z,12.90
2019-05-21T01:41:43.406Z,13.73
2019-05-21T01:44:12.994Z,13.27
2019-05-21T01:46:41.430Z,12.77
2019-05-21T01:49:09.874Z,13.03
2019-05-21T01:51:38.305Z,13.37
2019-05-21T01:54:06.730Z,11.80
2019-05-21T01:56:35.184Z,12.27
2019-05-21T01:59:04.396Z,11.60
2019-05-21T02:01:32.876Z,12.50
2019-05-21T02:04:01.342Z,13.10
2019-05-21T02:06:29.779Z,12.80
2019-05-21T02:08:58.224Z,12.67
2019-05-21T02:11:26.680Z,13.47
2019-05-21T02:13:55.115Z,14.13
2019-05-21T02:16:23.556Z,13.63
2019-05-21T02:18:51.971Z,15.37
2019-05-21T02:21:20.435Z,15.47
2019-05-21T02:23:48.862Z,15.83
2019-05-21T02:26:17.298Z,15.30
2019-05-21T02:28:45.729Z,14.63
2019-05-21T02:31:14.167Z,14.47
2019-05-21T02:33:42.593Z,14.97
2019-05-21T02:36:11.038Z,15.43
2019-05-21T02:38:39.482Z,16.53
2019-05-21T02:41:07.909Z,17.10
2019-05-21T02:43:36.340Z,16.67
2019-05-21T02:46:04.857Z,16.30
2019-05-21T02:48:33.427Z,15.90
2019-05-21T02:51:01.862Z,18.37
2019-05-21T02:53:34.133Z,18.17
2019-05-21T02:56:00.589Z,17.37
2019-05-21T02:58:29.003Z,18.70
2019-05-21T03:00:59.096Z,17.67
2019-05-21T03:03:29.151Z,17.83
2019-05-21T03:06:12.515Z,17.27
2019-05-21T03:08:27.847Z,18.27
2019-05-21T03:10:56.321Z,17.63
2019-05-21T03:13:24.753Z,16.73
2019-05-21T03:15:53.221Z,16.43
2019-05-21T03:18:23.758Z,16.83
2019-05-21T03:20:52.394Z,17.03
2019-05-21T03:23:20.879Z,15.63
2019-05-21T03:25:49.384Z,17.50
2019-05-21T03:28:17.819Z,15.97
2019-05-21T03:30:46.254Z,16.83
2019-05-21T03:33:14.677Z,17.07
2019-05-21T03:35:43.151Z,16.30
2019-05-21T03:38:11.644Z,16.30
2019-05-21T03:40:40.067Z,16.37
2019-05-21T03:43:08.510Z,17.10
2019-05-21T03:45:36.944Z,17.07
2019-05-21T03:48:05.511Z,15.97
2019-05-21T03:50:33.954Z,15.53
2019-05-21T03:53:02.388Z,15.77
2019-05-21T03:55:30.824Z,15.23
2019-05-21T03:57:59.637Z,15.63
2019-05-21T04:00:28.464Z,15.20
2019-05-21T04:02:57.011Z,16.17
2019-05-21T04:05:27.373Z,16.33
2019-05-21T04:07:55.812Z,15.57
2019-05-21T04:10:25.901Z,15.67
2019-05-21T04:13:07.193Z,16.23
2019-05-21T04:15:59.660Z,15.70
2019-05-21T04:18:38.528Z,14.57
2019-05-21T04:21:07.012Z,15.37
2019-05-21T04:23:35.479Z,14.97
2019-05-21T04:26:03.985Z,16.23
2019-05-21T04:28:32.449Z,16.73
2019-05-21T04:31:00.958Z,20.30
2019-05-21T04:33:29.516Z,18.80
2019-05-21T04:35:57.936Z,15.83
2019-05-21T04:38:26.399Z,16.57
2019-05-21T04:40:54.830Z,17.40
2019-05-21T04:43:23.269Z,16.33
2019-05-21T04:45:51.915Z,17.10
2019-05-21T04:48:20.488Z,15.57
2019-05-21T04:50:48.984Z,15.00
2019-05-21T04:53:17.427Z,16.13
2019-05-21T04:55:45.861Z,16.17
2019-05-21T04:58:14.374Z,16.43
2019-05-21T05:00:42.821Z,14.73
2019-05-21T05:03:11.272Z,14.33
2019-05-21T05:05:39.718Z,14.17
2019-05-21T05:08:08.357Z,14.60
2019-05-21T05:10:36.762Z,14.57
2019-05-21T05:13:05.198Z,14.30
2019-05-21T05:15:33.632Z,15.13
2019-05-21T05:18:02.070Z,13.43
2019-05-21T05:20:30.613Z,13.97
2019-05-21T05:22:59.041Z,14.23
2019-05-21T05:25:27.517Z,14.60
2019-05-21T05:27:55.966Z,12.90
2019-05-21T05:30:24.379Z,13.13
2019-05-21T05:32:52.827Z,12.60
2019-05-21T05:35:21.263Z,12.30
2019-05-21T05:37:49.712Z,12.13
2019-05-21T05:40:18.584Z,12.47
2019-05-21T05:42:47.058Z,11.77
2019-05-21T05:45:15.927Z,11.53
2019-05-21T05:47:44.368Z,10.33
2019-05-21T05:50:20.661Z,11.13
2019-05-21T05:52:49.087Z,10.63
2019-05-21T05:55:17.594Z,10.50
2019-05-21T05:57:46.019Z,11.50
2019-05-21T06:00:16.183Z,9.93
2019-05-21T06:02:44.613Z,10.57
2019-05-21T06:05:13.684Z,11.10
2019-05-21T06:07:42.143Z,11.73
2019-05-21T06:10:10.864Z,12.57
2019-05-21T06:12:39.295Z,12.70
2019-05-21T06:15:08.290Z,11.17
2019-05-21T06:17:36.785Z,10.30
2019-05-21T06:20:07.653Z,11.40
2019-05-21T06:22:36.087Z,9.97
2019-05-21T06:25:06.922Z,10.00
2019-05-21T06:27:35.723Z,11.07
2019-05-21T06:30:06.268Z,10.67
2019-05-21T06:32:34.807Z,9.97
2019-05-21T06:35:04.141Z,11.43
2019-05-21T06:37:32.577Z,11.17
2019-05-21T06:40:01.039Z,11.13
2019-05-21T06:42:29.724Z,11.80
2019-05-21T06:44:58.151Z,10.93
2019-05-21T06:47:26.583Z,10.67
2019-05-21T06:49:55.168Z,10.40
2019-05-21T06:52:23.931Z,10.47
2019-05-21T06:54:52.404Z,10.70
2019-05-21T06:57:21.438Z,10.47
2019-05-21T06:59:49.908Z,12.80
2019-05-21T07:02:18.533Z,12.10
2019-05-21T07:04:46.995Z,11.20
2019-05-21T07:07:15.619Z,10.80
2019-05-21T07:09:44.299Z,9.60
2019-05-21T07:12:12.773Z,10.67
2019-05-21T07:14:41.280Z,9.67
2019-05-21T07:17:09.695Z,9.33
2019-05-21T07:19:38.137Z,10.10
2019-05-21T07:22:25.907Z,10.80
2019-05-21T07:24:54.368Z,9.90
2019-05-21T07:27:22.795Z,10.00
2019-05-21T07:29:51.241Z,9.20
2019-05-21T07:32:19.671Z,8.50
2019-05-21T07:34:48.869Z,8.50
2019-05-21T07:37:17.299Z,9.17
2019-05-21T07:39:45.759Z,8.87
2019-05-21T07:42:14.275Z,8.88
2019-05-21T07:44:42.728Z,9.23
2019-05-21T07:47:11.248Z,10.00
2019-05-21T07:49:39.662Z,8.50
2019-05-21T07:52:08.099Z,8.85
2019-05-21T07:54:36.607Z,9.65
2019-05-21T07:57:05.037Z,9.57
2019-05-21T07:59:33.471Z,8.58
2019-05-21T08:02:01.978Z,7.17
2019-05-21T08:04:30.598Z,8.83
2019-05-21T08:06:59.068Z,7.17
2019-05-21T08:09:27.604Z,7.10
2019-05-21T08:11:56.084Z,8.33
2019-05-21T08:14:24.504Z,8.83
2019-05-21T08:16:52.953Z,7.47
2019-05-21T08:19:21.880Z,7.80
2019-05-21T08:21:50.932Z,7.62
2019-05-21T08:24:20.271Z,6.83
2019-05-21T08:26:48.740Z,6.67
2019-05-21T08:29:17.224Z,6.97
2019-05-21T08:31:45.680Z,6.80
2019-05-21T08:34:14.116Z,7.12
2019-05-21T08:36:42.535Z,7.50
2019-05-21T08:39:10.977Z,7.03
2019-05-21T08:41:39.469Z,7.75
2019-05-21T08:44:07.895Z,6.85
2019-05-21T08:46:36.324Z,6.62
2019-05-21T08:49:04.778Z,7.70
2019-05-21T08:51:33.196Z,6.62
2019-05-21T08:54:01.622Z,6.00
2019-05-21T08:56:30.070Z,6.75
2019-05-21T08:58:58.576Z,7.35
2019-05-21T09:01:27.014Z,6.65
2019-05-21T09:03:55.447Z,6.28
2019-05-21T09:06:23.884Z,6.83
2019-05-21T09:08:52.313Z,5.75
2019-05-21T09:11:20.749Z,6.00
2019-05-21T09:13:49.186Z,5.72
2019-05-21T09:16:17.613Z,4.62
2019-05-21T09:18:46.040Z,4.22
2019-05-21T09:21:14.549Z,4.85
2019-05-21T09:23:43.035Z,5.20
2019-05-21T09:26:11.807Z,5.87
2019-05-21T09:28:40.234Z,4.67
2019-05-21T09:31:08.688Z,5.15
2019-05-21T09:33:37.146Z,5.55
2019-05-21T09:36:05.645Z,6.22
2019-05-21T09:38:34.087Z,4.92
2019-05-21T09:41:02.536Z,5.85
2019-05-21T09:43:31.064Z,4.97
2019-05-21T09:45:59.497Z,5.25
2019-05-21T09:48:27.946Z,4.58
2019-05-21T09:50:56.454Z,5.62
2019-05-21T09:53:24.967Z,4.87
2019-05-21T09:55:53.379Z,4.53
2019-05-21T09:58:23.470Z,4.53
2019-05-21T10:01:10.087Z,4.70
2019-05-21T10:03:40.158Z,5.17
2019-05-21T10:06:08.622Z,4.87
2019-05-21T10:08:37.348Z,9.98
2019-05-21T10:11:06.138Z,5.12
2019-05-21T10:13:34.586Z,4.42
2019-05-21T10:16:03.028Z,4.15
2019-05-21T10:18:31.487Z,4.90
2019-05-21T10:20:59.914Z,4.42
2019-05-21T10:23:28.353Z,3.17
2019-05-21T10:25:56.791Z,3.75
2019-05-21T10:28:25.234Z,4.00
2019-05-21T10:30:53.941Z,4.10
2019-05-21T10:33:22.388Z,4.28
2019-05-21T10:35:50.817Z,4.12
2019-05-21T10:38:19.251Z,4.08
2019-05-21T10:40:47.695Z,3.70
2019-05-21T10:43:16.287Z,3.10
2019-05-21T10:45:44.725Z,2.80
2019-05-21T10:48:13.182Z,2.55
2019-05-21T10:50:41.625Z,2.60
2019-05-21T10:53:10.069Z,3.85
2019-05-21T10:55:38.495Z,3.65
2019-05-21T10:58:06.931Z,2.27
2019-05-21T11:00:35.839Z,2.02
2019-05-21T11:03:06.037Z,2.35
2019-05-21T11:05:36.188Z,2.00
2019-05-21T11:08:23.053Z,2.87
2019-05-21T11:10:35.820Z,2.40
2019-05-21T11:13:04.614Z,2.75
2019-05-21T11:15:33.217Z,2.47
2019-05-21T11:18:10.432Z,2.25
2019-05-21T11:20:31.807Z,2.55
2019-05-21T11:23:00.222Z,2.40
2019-05-21T11:25:28.673Z,1.85
2019-05-21T11:27:57.098Z,2.10
2019-05-21T11:30:25.549Z,1.82
2019-05-21T11:32:54.036Z,2.30
2019-05-21T11:35:22.476Z,2.67
2019-05-21T11:37:50.895Z,1.77
2019-05-21T11:40:19.590Z,2.12
2019-05-21T11:42:48.035Z,2.35
2019-05-21T11:45:31.050Z,2.50
2019-05-21T11:47:47.071Z,2.20
2019-05-21T11:50:17.449Z,1.65
2019-05-21T11:52:45.870Z,1.67
2019-05-21T11:55:14.539Z,2.00
2019-05-21T11:57:42.978Z,2.17
2019-05-21T12:00:12.458Z,1.87
2019-05-21T12:02:40.887Z,1.80
2019-05-21T12:05:09.952Z,1.85
2019-05-21T12:07:38.463Z,2.15
2019-05-21T12:10:07.957Z,2.00
2019-05-21T12:12:36.384Z,1.80
2019-05-21T12:15:09.240Z,2.12
2019-05-21T12:17:37.660Z,1.60
2019-05-21T12:20:10.616Z,2.00
2019-05-21T12:22:39.057Z,1.72
2019-05-21T12:25:08.054Z,2.10
2019-05-21T12:27:36.482Z,1.80
2019-05-21T12:30:08.425Z,2.08
2019-05-21T12:32:36.932Z,2.77
2019-05-21T12:35:06.201Z,2.90
2019-05-21T12:37:34.766Z,2.95
2019-05-21T12:40:04.733Z,3.17
2019-05-21T12:42:33.163Z,2.87
2019-05-21T12:45:01.663Z,3.40
2019-05-21T12:47:30.193Z,2.75
2019-05-21T12:49:58.686Z,3.40
2019-05-21T12:52:27.399Z,2.70
2019-05-21T12:54:55.839Z,2.45
2019-05-21T12:57:24.267Z,2.22
2019-05-21T12:59:52.703Z,2.75
2019-05-21T13:02:21.133Z,2.30
2019-05-21T13:04:49.578Z,2.70
2019-05-21T13:07:18.050Z,2.55
2019-05-21T13:09:46.505Z,2.35
2019-05-21T13:12:14.944Z,2.83
2019-05-21T13:14:43.379Z,2.62
2019-05-21T13:17:11.875Z,2.55
2019-05-21T13:19:40.311Z,2.58
2019-05-21T13:22:08.747Z,2.72
2019-05-21T13:24:37.180Z,2.72
2019-05-21T13:27:06.400Z,3.40
2019-05-21T13:29:34.947Z,3.40
2019-05-21T13:32:03.513Z,3.65
2019-05-21T13:34:32.118Z,3.62
2019-05-21T13:37:00.545Z,3.72
2019-05-21T13:39:28.980Z,2.87
2019-05-21T13:41:57.513Z,3.08
2019-05-21T13:44:25.950Z,3.15
2019-05-21T13:46:54.383Z,3.20
2019-05-21T13:49:22.891Z,4.08
2019-05-21T13:51:51.417Z,3.77
2019-05-21T13:54:20.023Z,3.12
2019-05-21T13:56:48.500Z,3.60
2019-05-21T13:59:17.314Z,4.05
2019-05-21T14:01:45.856Z,3.33
2019-05-21T14:04:15.379Z,4.55
2019-05-21T14:06:43.837Z,3.60
2019-05-21T14:09:12.452Z,3.62
2019-05-21T14:11:40.873Z,3.80
2019-05-21T14:14:09.420Z,3.50
2019-05-21T14:16:37.896Z,3.22
2019-05-21T14:19:06.377Z,3.45
2019-05-21T14:21:34.852Z,3.58
2019-05-21T14:24:03.324Z,4.45
2019-05-21T14:26:31.945Z,3.95
2019-05-21T14:29:00.360Z,3.65
2019-05-21T14:31:28.904Z,3.17
2019-05-21T14:33:57.508Z,3.67
2019-05-21T14:36:26.031Z,4.50
2019-05-21T14:38:54.520Z,4.40
2019-05-21T14:41:22.968Z,6.03
2019-05-21T14:43:51.407Z,5.00
2019-05-21T14:46:19.853Z,4.67
2019-05-21T14:48:48.276Z,4.15
2019-05-21T14:51:16.739Z,5.12
2019-05-21T14:53:45.229Z,4.47
2019-05-21T14:56:13.665Z,4.75
2019-05-21T14:58:42.107Z,4.40
2019-05-21T15:01:10.714Z,3.83
2019-05-21T15:03:39.148Z,4.92
2019-05-21T15:06:07.586Z,4.45
2019-05-21T15:08:36.030Z,4.62
2019-05-21T15:11:04.591Z,5.22
2019-05-21T15:13:33.031Z,4.53
2019-05-21T15:16:01.463Z,5.33
2019-05-21T15:18:29.975Z,4.78
2019-05-21T15:21:02.767Z,4.78
2019-05-21T15:23:31.201Z,4.85
2019-05-21T15:25:59.652Z,4.37
2019-05-21T15:28:28.090Z,4.75
2019-05-21T15:30:56.511Z,4.08
2019-05-21T15:33:24.956Z,3.60
2019-05-21T15:35:53.386Z,3.30
2019-05-21T15:38:21.836Z,3.47
2019-05-21T15:41:08.695Z,3.35
2019-05-21T15:43:20.518Z,3.45
2019-05-21T15:45:48.937Z,3.40
2019-05-21T15:48:17.373Z,3.33
2019-05-21T15:50:45.817Z,3.55
2019-05-21T15:53:14.382Z,3.55
2019-05-21T15:55:42.802Z,3.70
2019-05-21T15:58:11.242Z,3.08
2019-05-21T16:00:40.062Z,3.52
2019-05-21T16:03:08.529Z,3.15
2019-05-21T16:05:36.954Z,3.12
2019-05-21T16:08:05.449Z,3.25
2019-05-21T16:10:33.876Z,3.42
2019-05-21T16:13:02.344Z,3.25
2019-05-21T16:15:30.820Z,3.58
2019-05-21T16:17:59.356Z,3.92
2019-05-21T16:20:27.775Z,3.80
2019-05-21T16:22:56.637Z,3.10
2019-05-21T16:25:25.099Z,3.42
2019-05-21T16:27:53.553Z,3.62
2019-05-21T16:30:22.122Z,3.70
2019-05-21T16:32:50.567Z,3.05
2019-05-21T16:35:19.018Z,2.83
2019-05-21T16:37:47.450Z,3.20
2019-05-21T16:40:17.008Z,3.12
2019-05-21T16:42:45.444Z,3.98
2019-05-21T16:45:14.421Z,3.55
2019-05-21T16:47:46.150Z,4.00
2019-05-21T16:50:13.237Z,3.75
2019-05-21T16:52:41.677Z,3.60
2019-05-21T16:55:10.272Z,3.90
2019-05-21T16:57:38.713Z,3.92
2019-05-21T17:00:09.159Z,4.25
2019-05-21T17:02:37.595Z,4.20
2019-05-21T17:05:06.968Z,4.00
2019-05-21T17:07:35.387Z,3.58
2019-05-21T17:10:07.191Z,4.33
2019-05-21T17:12:35.693Z,4.37
2019-05-21T17:15:06.955Z,4.22
2019-05-21T17:17:35.655Z,3.58
2019-05-21T17:20:07.131Z,3.90
2019-05-21T17:22:35.673Z,4.20
2019-05-21T17:25:06.398Z,4.12
2019-05-21T17:27:34.815Z,4.00
2019-05-21T17:30:04.529Z,3.67
2019-05-21T17:32:32.957Z,4.25
2019-05-21T17:35:01.430Z,5.00
2019-05-21T17:37:30.483Z,4.78
2019-05-21T17:39:59.111Z,4.10
2019-05-21T17:42:27.531Z,5.62
2019-05-21T17:44:55.995Z,3.72
2019-05-21T17:47:25.359Z,3.58
2019-05-21T17:49:53.829Z,3.02
2019-05-21T17:52:22.251Z,3.45
2019-05-21T17:54:56.941Z,3.22
2019-05-21T17:57:21.475Z,2.95
2019-05-21T17:59:50.195Z,3.33
2019-05-21T18:02:19.400Z,2.92
2019-05-21T18:04:48.801Z,3.58
2019-05-21T18:07:17.766Z,5.15
2019-05-21T18:09:46.415Z,3.85
2019-05-21T18:12:29.737Z,3.25
2019-05-21T18:14:46.360Z,3.08
2019-05-21T18:17:16.612Z,2.92
2019-05-21T18:19:45.694Z,3.08
2019-05-21T18:22:16.100Z,3.40
2019-05-21T18:24:48.278Z,3.22
2019-05-21T18:27:15.059Z,3.67
2019-05-21T18:29:43.673Z,4.58
2019-05-21T18:32:12.111Z,5.33
2019-05-21T18:34:40.564Z,5.28
2019-05-21T18:37:08.999Z,5.08
2019-05-21T18:39:37.441Z,4.67
2019-05-21T18:42:19.655Z,5.47
2019-05-21T18:44:36.039Z,5.47
2019-05-21T18:47:04.475Z,5.60
2019-05-21T18:49:32.923Z,5.12
2019-05-21T18:52:01.454Z,5.12
2019-05-21T18:54:30.209Z,5.55
2019-05-21T18:56:58.929Z,5.15
2019-05-21T18:59:27.359Z,5.50
2019-05-21T19:01:55.866Z,5.20
2019-05-21T19:04:24.289Z,4.65
2019-05-21T19:06:53.074Z,7.53
2019-05-21T19:09:21.527Z,4.30
2019-05-21T19:11:50.167Z,4.10
2019-05-21T19:14:18.629Z,8.60
2019-05-21T19:16:47.106Z,3.02
2019-05-21T19:19:15.827Z,2.87
2019-05-21T19:21:44.480Z,2.80
2019-05-21T19:24:12.900Z,2.47
2019-05-21T19:26:43.995Z,2.47
2019-05-21T19:29:11.501Z,2.40
2019-05-21T19:31:40.001Z,2.10
2019-05-21T19:34:08.420Z,1.50
2019-05-21T19:36:36.875Z,1.90
2019-05-21T19:39:07.048Z,1.85
2019-05-21T19:41:35.568Z,2.43
2019-05-21T19:44:04.164Z,1.60
2019-05-21T19:46:32.601Z,6.25
2019-05-21T19:49:01.020Z,2.00
2019-05-21T19:51:29.827Z,1.70
2019-05-21T19:53:58.458Z,1.67
2019-05-21T19:56:26.900Z,2.10
2019-05-21T19:58:55.524Z,2.15
2019-05-21T20:01:24.304Z,2.27
2019-05-21T20:03:52.952Z,2.07
2019-05-21T20:06:21.824Z,3.12
2019-05-21T20:08:50.268Z,3.58
2019-05-21T20:11:18.709Z,4.03
2019-05-21T20:13:47.475Z,4.47
2019-05-21T20:16:18.116Z,6.83
2019-05-21T20:18:46.611Z,6.63
2019-05-21T20:21:15.612Z,7.87
2019-05-21T20:23:45.163Z,7.80
2019-05-21T20:26:17.663Z,9.48
2019-05-21T20:28:46.678Z,8.10
2019-05-21T20:31:15.885Z,8.20
2019-05-21T20:33:46.918Z,8.70
2019-05-21T20:36:15.479Z,9.60
2019-05-21T20:38:43.952Z,8.87
2019-05-21T20:41:12.652Z,9.37
2019-05-21T20:43:41.453Z,9.73
2019-05-21T20:46:10.416Z,10.28
2019-05-21T20:48:39.692Z,12.90
2019-05-21T20:51:09.735Z,10.70
2019-05-21T20:53:38.170Z,9.18
2019-05-21T20:56:08.464Z,7.87
2019-05-21T20:58:36.904Z,5.85
2019-05-21T21:01:06.256Z,4.80
2019-05-21T21:03:35.441Z,4.10
2019-05-21T21:06:04.970Z,3.53
2019-05-21T21:08:34.087Z,4.53
2019-05-21T21:11:03.480Z,4.35
2019-05-21T21:13:32.862Z,5.37
2019-05-21T21:16:02.999Z,5.73
2019-05-21T21:18:31.890Z,5.93
2019-05-21T21:21:00.493Z,5.80
2019-05-21T21:23:30.131Z,6.43
2019-05-21T21:25:59.098Z,5.93
2019-05-21T21:28:27.691Z,5.37
2019-05-21T21:30:57.475Z,4.60
2019-05-21T21:33:25.911Z,4.10
2019-05-21T21:35:54.348Z,4.00
2019-05-21T21:38:24.576Z,3.30
2019-05-21T21:40:53.314Z,4.00
2019-05-21T21:43:21.748Z,3.67
2019-05-21T21:45:50.442Z,4.33
2019-05-21T21:48:19.154Z,4.30
2019-05-21T21:50:49.065Z,5.00
2019-05-21T21:53:17.659Z,5.60
2019-05-21T21:55:46.113Z,5.30
2019-05-21T21:58:14.543Z,5.47
2019-05-21T22:00:59.668Z,6.53
2019-05-21T22:03:31.480Z,7.17
2019-05-21T22:06:01.603Z,8.90
2019-05-21T22:08:31.353Z,10.47
2019-05-21T22:11:00.246Z,11.77
2019-05-21T22:13:29.132Z,13.57
2019-05-21T22:15:58.209Z,12.20
2019-05-21T22:18:27.484Z,13.57
2019-05-21T22:20:56.386Z,13.00
2019-05-21T22:23:25.095Z,13.27
2019-05-21T22:25:53.528Z,13.87
2019-05-21T22:28:22.232Z,14.50
2019-05-21T22:30:50.808Z,13.67
2019-05-21T22:33:20.194Z,16.03
2019-05-21T22:35:48.744Z,15.00
2019-05-21T22:38:17.171Z,15.97
2019-05-21T22:40:45.608Z,16.53
2019-05-21T22:43:14.340Z,14.17
2019-05-21T22:45:42.791Z,16.40
2019-05-21T22:48:11.241Z,15.67
2019-05-21T22:50:39.810Z,18.20
2019-05-21T22:53:08.246Z,17.90
2019-05-21T22:55:36.691Z,18.77
2019-05-21T22:58:05.853Z,19.50
2019-05-21T23:00:34.663Z,20.30
2019-05-21T23:03:03.659Z,20.67
2019-05-21T23:05:32.111Z,22.77
2019-05-21T23:08:01.711Z,23.40
2019-05-21T23:10:30.327Z,23.60
2019-05-21T23:12:58.757Z,23.87
2019-05-21T23:15:27.435Z,24.57
2019-05-21T23:17:56.639Z,23.50
2019-05-21T23:20:27.731Z,24.93
2019-05-21T23:22:59.390Z,23.37
2019-05-21T23:25:28.374Z,23.53
2019-05-21T23:27:56.798Z,23.90
2019-05-21T23:30:25.245Z,23.90
2019-05-21T23:32:53.694Z,23.77
2019-05-21T23:35:22.516Z,22.30
2019-05-21T23:37:51.762Z,24.37
2019-05-21T23:40:22.249Z,24.40
2019-05-21T23:42:51.139Z,22.93
2019-05-21T23:45:20.517Z,22.53
2019-05-21T23:47:49.212Z,20.60
2019-05-21T23:50:19.564Z,20.60
2019-05-21T23:52:48.179Z,21.53
2019-05-21T23:55:16.942Z,19.70
2019-05-21T23:57:45.359Z,19.40
